sensor_id;sensor_type;location;lat;lon;timestamp;temperature;humidity
81192;DHT22;70665;47.652;-2.730;2023-11-18T00:00:22;13.30;96.40
81192;DHT22;70665;47.652;-2.730;2023-11-18T00:02:49;13.30;96.50
81192;DHT22;70665;47.652;-2.730;2023-11-18T00:05:14;13.40;96.50
81192;DHT22;70665;47.652;-2.730;2023-11-18T00:07:41;13.30;96.40
81192;DHT22;70665;47.652;-2.730;2023-11-18T00:10:08;13.40;96.60
81192;DHT22;70665;47.652;-2.730;2023-11-18T00:12:34;13.40;96.80
81192;DHT22;70665;47.652;-2.730;2023-11-18T00:15:03;13.50;96.50
81192;DHT22;70665;47.652;-2.730;2023-11-18T00:17:30;13.50;96.40
81192;DHT22;70665;47.652;-2.730;2023-11-18T00:19:55;13.50;96.30
81192;DHT22;70665;47.652;-2.730;2023-11-18T00:22:21;13.50;96.40
81192;DHT22;70665;47.652;-2.730;2023-11-18T00:24:47;13.60;96.30
81192;DHT22;70665;47.652;-2.730;2023-11-18T00:27:12;13.60;96.40
81192;DHT22;70665;47.652;-2.730;2023-11-18T00:29:41;13.60;96.40
81192;DHT22;70665;47.652;-2.730;2023-11-18T00:32:06;13.60;96.40
81192;DHT22;70665;47.652;-2.730;2023-11-18T00:34:33;13.70;96.40
81192;DHT22;70665;47.652;-2.730;2023-11-18T00:36:58;13.60;96.40
81192;DHT22;70665;47.652;-2.730;2023-11-18T00:39:24;13.60;96.70
81192;DHT22;70665;47.652;-2.730;2023-11-18T00:41:50;13.70;97.10
81192;DHT22;70665;47.652;-2.730;2023-11-18T00:44:16;13.70;96.90
81192;DHT22;70665;47.652;-2.730;2023-11-18T00:46:41;13.60;97.00
81192;DHT22;70665;47.652;-2.730;2023-11-18T00:49:07;13.70;97.20
81192;DHT22;70665;47.652;-2.730;2023-11-18T00:51:33;13.70;97.10
81192;DHT22;70665;47.652;-2.730;2023-11-18T00:53:59;13.70;97.10
81192;DHT22;70665;47.652;-2.730;2023-11-18T00:56:27;13.70;96.90
81192;DHT22;70665;47.652;-2.730;2023-11-18T00:58:54;13.70;96.90
81192;DHT22;70665;47.652;-2.730;2023-11-18T01:01:19;13.70;97.00
81192;DHT22;70665;47.652;-2.730;2023-11-18T01:03:47;13.80;96.70
81192;DHT22;70665;47.652;-2.730;2023-11-18T01:06:13;13.80;96.70
81192;DHT22;70665;47.652;-2.730;2023-11-18T01:08:44;13.90;96.70
81192;DHT22;70665;47.652;-2.730;2023-11-18T01:11:10;13.90;97.00
81192;DHT22;70665;47.652;-2.730;2023-11-18T01:13:35;13.90;96.50
81192;DHT22;70665;47.652;-2.730;2023-11-18T01:16:01;13.80;96.70
81192;DHT22;70665;47.652;-2.730;2023-11-18T01:18:27;13.90;96.50
81192;DHT22;70665;47.652;-2.730;2023-11-18T01:20:53;14.00;96.40
81192;DHT22;70665;47.652;-2.730;2023-11-18T01:23:19;14.00;96.40
81192;DHT22;70665;47.652;-2.730;2023-11-18T01:25:45;14.00;96.10
81192;DHT22;70665;47.652;-2.730;2023-11-18T01:28:10;14.00;96.30
81192;DHT22;70665;47.652;-2.730;2023-11-18T01:30:36;14.00;96.10
81192;DHT22;70665;47.652;-2.730;2023-11-18T01:33:02;14.00;96.00
81192;DHT22;70665;47.652;-2.730;2023-11-18T01:35:28;14.10;96.00
81192;DHT22;70665;47.652;-2.730;2023-11-18T01:37:53;14.10;96.20
81192;DHT22;70665;47.652;-2.730;2023-11-18T01:40:24;14.10;95.90
81192;DHT22;70665;47.652;-2.730;2023-11-18T01:42:50;14.10;95.90
81192;DHT22;70665;47.652;-2.730;2023-11-18T01:45:16;14.20;95.60
81192;DHT22;70665;47.652;-2.730;2023-11-18T01:47:45;14.10;95.70
81192;DHT22;70665;47.652;-2.730;2023-11-18T01:50:14;14.00;95.60
81192;DHT22;70665;47.652;-2.730;2023-11-18T01:52:40;14.30;95.70
81192;DHT22;70665;47.652;-2.730;2023-11-18T01:55:07;14.20;95.50
81192;DHT22;70665;47.652;-2.730;2023-11-18T01:57:34;14.30;95.60
81192;DHT22;70665;47.652;-2.730;2023-11-18T02:00:00;14.40;95.30
81192;DHT22;70665;47.652;-2.730;2023-11-18T02:02:26;14.40;95.10
81192;DHT22;70665;47.652;-2.730;2023-11-18T02:04:51;14.30;95.10
81192;DHT22;70665;47.652;-2.730;2023-11-18T02:07:18;14.40;95.00
81192;DHT22;70665;47.652;-2.730;2023-11-18T02:09:44;14.40;94.70
81192;DHT22;70665;47.652;-2.730;2023-11-18T02:12:31;14.40;94.70
81192;DHT22;70665;47.652;-2.730;2023-11-18T02:15:05;14.50;94.30
81192;DHT22;70665;47.652;-2.730;2023-11-18T02:17:38;14.50;94.40
81192;DHT22;70665;47.652;-2.730;2023-11-18T02:20:04;14.50;94.20
81192;DHT22;70665;47.652;-2.730;2023-11-18T02:22:41;14.50;93.90
81192;DHT22;70665;47.652;-2.730;2023-11-18T02:25:09;14.60;93.90
81192;DHT22;70665;47.652;-2.730;2023-11-18T02:27:36;14.60;94.00
81192;DHT22;70665;47.652;-2.730;2023-11-18T02:30:03;14.70;93.40
81192;DHT22;70665;47.652;-2.730;2023-11-18T02:32:39;14.60;93.10
81192;DHT22;70665;47.652;-2.730;2023-11-18T02:35:15;14.70;92.70
81192;DHT22;70665;47.652;-2.730;2023-11-18T02:37:46;14.60;92.60
81192;DHT22;70665;47.652;-2.730;2023-11-18T02:40:19;14.60;92.20
81192;DHT22;70665;47.652;-2.730;2023-11-18T02:42:46;14.70;92.20
81192;DHT22;70665;47.652;-2.730;2023-11-18T02:45:13;14.70;91.90
81192;DHT22;70665;47.652;-2.730;2023-11-18T02:47:46;14.80;91.80
81192;DHT22;70665;47.652;-2.730;2023-11-18T02:50:11;14.80;91.70
81192;DHT22;70665;47.652;-2.730;2023-11-18T02:52:39;14.80;91.60
81192;DHT22;70665;47.652;-2.730;2023-11-18T02:55:06;14.80;91.70
81192;DHT22;70665;47.652;-2.730;2023-11-18T02:57:33;14.90;92.00
81192;DHT22;70665;47.652;-2.730;2023-11-18T02:59:59;14.80;91.70
81192;DHT22;70665;47.652;-2.730;2023-11-18T03:02:28;14.90;91.60
81192;DHT22;70665;47.652;-2.730;2023-11-18T03:04:59;14.90;91.80
81192;DHT22;70665;47.652;-2.730;2023-11-18T03:07:28;14.90;91.60
81192;DHT22;70665;47.652;-2.730;2023-11-18T03:09:53;14.90;91.80
81192;DHT22;70665;47.652;-2.730;2023-11-18T03:12:22;14.90;92.00
81192;DHT22;70665;47.652;-2.730;2023-11-18T03:14:48;14.90;93.00
81192;DHT22;70665;47.652;-2.730;2023-11-18T03:17:14;14.90;93.60
81192;DHT22;70665;47.652;-2.730;2023-11-18T03:19:39;15.00;93.80
81192;DHT22;70665;47.652;-2.730;2023-11-18T03:22:07;14.90;94.40
81192;DHT22;70665;47.652;-2.730;2023-11-18T03:24:32;14.80;94.90
81192;DHT22;70665;47.652;-2.730;2023-11-18T03:26:58;14.80;95.50
81192;DHT22;70665;47.652;-2.730;2023-11-18T03:29:24;14.80;95.60
81192;DHT22;70665;47.652;-2.730;2023-11-18T03:31:50;14.80;95.80
81192;DHT22;70665;47.652;-2.730;2023-11-18T03:34:16;14.80;96.30
81192;DHT22;70665;47.652;-2.730;2023-11-18T03:36:41;14.70;96.90
81192;DHT22;70665;47.652;-2.730;2023-11-18T03:39:07;14.80;97.00
81192;DHT22;70665;47.652;-2.730;2023-11-18T03:41:36;14.80;97.30
81192;DHT22;70665;47.652;-2.730;2023-11-18T03:44:03;14.80;97.00
81192;DHT22;70665;47.652;-2.730;2023-11-18T03:46:29;14.80;97.20
81192;DHT22;70665;47.652;-2.730;2023-11-18T03:48:58;14.80;97.30
81192;DHT22;70665;47.652;-2.730;2023-11-18T03:51:23;14.80;97.40
81192;DHT22;70665;47.652;-2.730;2023-11-18T03:53:49;14.90;97.30
81192;DHT22;70665;47.652;-2.730;2023-11-18T03:56:18;14.80;97.60
81192;DHT22;70665;47.652;-2.730;2023-11-18T03:58:44;14.80;97.30
81192;DHT22;70665;47.652;-2.730;2023-11-18T04:01:09;14.90;97.60
81192;DHT22;70665;47.652;-2.730;2023-11-18T04:03:36;14.90;97.70
81192;DHT22;70665;47.652;-2.730;2023-11-18T04:06:02;15.00;97.60
81192;DHT22;70665;47.652;-2.730;2023-11-18T04:08:29;14.90;97.40
81192;DHT22;70665;47.652;-2.730;2023-11-18T04:10:54;14.80;97.60
81192;DHT22;70665;47.652;-2.730;2023-11-18T04:13:20;14.90;97.40
81192;DHT22;70665;47.652;-2.730;2023-11-18T04:15:45;14.80;97.60
81192;DHT22;70665;47.652;-2.730;2023-11-18T04:18:11;14.90;97.70
81192;DHT22;70665;47.652;-2.730;2023-11-18T04:20:36;15.00;97.70
81192;DHT22;70665;47.652;-2.730;2023-11-18T04:23:02;15.00;97.70
81192;DHT22;70665;47.652;-2.730;2023-11-18T04:25:28;14.90;97.80
81192;DHT22;70665;47.652;-2.730;2023-11-18T04:27:53;15.00;98.00
81192;DHT22;70665;47.652;-2.730;2023-11-18T04:30:19;15.00;98.10
81192;DHT22;70665;47.652;-2.730;2023-11-18T04:32:45;15.00;98.10
81192;DHT22;70665;47.652;-2.730;2023-11-18T04:35:10;15.00;98.20
81192;DHT22;70665;47.652;-2.730;2023-11-18T04:37:37;15.00;98.20
81192;DHT22;70665;47.652;-2.730;2023-11-18T04:40:05;15.00;97.80
81192;DHT22;70665;47.652;-2.730;2023-11-18T04:42:31;15.10;97.70
81192;DHT22;70665;47.652;-2.730;2023-11-18T04:44:57;15.00;97.80
81192;DHT22;70665;47.652;-2.730;2023-11-18T04:47:23;15.10;97.70
81192;DHT22;70665;47.652;-2.730;2023-11-18T04:49:50;15.10;97.40
81192;DHT22;70665;47.652;-2.730;2023-11-18T04:52:17;15.20;97.50
81192;DHT22;70665;47.652;-2.730;2023-11-18T04:54:42;15.20;97.50
81192;DHT22;70665;47.652;-2.730;2023-11-18T04:57:08;15.20;97.60
81192;DHT22;70665;47.652;-2.730;2023-11-18T04:59:36;15.10;97.80
81192;DHT22;70665;47.652;-2.730;2023-11-18T05:02:01;15.10;98.00
81192;DHT22;70665;47.652;-2.730;2023-11-18T05:04:28;15.10;98.10
81192;DHT22;70665;47.652;-2.730;2023-11-18T05:06:53;15.10;98.00
81192;DHT22;70665;47.652;-2.730;2023-11-18T05:09:19;15.20;98.20
81192;DHT22;70665;47.652;-2.730;2023-11-18T05:11:45;15.10;98.30
81192;DHT22;70665;47.652;-2.730;2023-11-18T05:14:10;15.20;98.40
81192;DHT22;70665;47.652;-2.730;2023-11-18T05:16:36;15.10;98.60
81192;DHT22;70665;47.652;-2.730;2023-11-18T05:19:02;15.10;98.70
81192;DHT22;70665;47.652;-2.730;2023-11-18T05:21:28;15.20;98.90
81192;DHT22;70665;47.652;-2.730;2023-11-18T05:23:54;15.10;98.90
81192;DHT22;70665;47.652;-2.730;2023-11-18T05:26:19;15.10;98.80
81192;DHT22;70665;47.652;-2.730;2023-11-18T05:28:45;15.10;98.90
81192;DHT22;70665;47.652;-2.730;2023-11-18T05:31:10;15.20;99.30
81192;DHT22;70665;47.652;-2.730;2023-11-18T05:33:37;15.20;98.90
81192;DHT22;70665;47.652;-2.730;2023-11-18T05:36:03;15.20;99.10
81192;DHT22;70665;47.652;-2.730;2023-11-18T05:38:30;15.20;98.90
81192;DHT22;70665;47.652;-2.730;2023-11-18T05:41:00;15.20;99.10
81192;DHT22;70665;47.652;-2.730;2023-11-18T05:43:32;15.20;98.90
81192;DHT22;70665;47.652;-2.730;2023-11-18T05:46:06;15.20;98.80
81192;DHT22;70665;47.652;-2.730;2023-11-18T05:48:46;15.20;98.80
81192;DHT22;70665;47.652;-2.730;2023-11-18T05:51:12;15.30;98.80
81192;DHT22;70665;47.652;-2.730;2023-11-18T05:53:42;15.30;98.60
81192;DHT22;70665;47.652;-2.730;2023-11-18T05:56:13;15.20;98.60
81192;DHT22;70665;47.652;-2.730;2023-11-18T05:58:39;15.20;98.70
81192;DHT22;70665;47.652;-2.730;2023-11-18T06:01:05;15.10;98.90
81192;DHT22;70665;47.652;-2.730;2023-11-18T06:03:34;15.10;99.00
81192;DHT22;70665;47.652;-2.730;2023-11-18T06:06:08;15.20;98.90
81192;DHT22;70665;47.652;-2.730;2023-11-18T06:08:36;15.30;98.80
81192;DHT22;70665;47.652;-2.730;2023-11-18T06:11:02;15.20;99.00
81192;DHT22;70665;47.652;-2.730;2023-11-18T06:13:42;15.20;99.10
81192;DHT22;70665;47.652;-2.730;2023-11-18T06:16:09;15.20;99.30
81192;DHT22;70665;47.652;-2.730;2023-11-18T06:18:35;15.20;99.20
81192;DHT22;70665;47.652;-2.730;2023-11-18T06:21:01;15.20;98.90
81192;DHT22;70665;47.652;-2.730;2023-11-18T06:23:27;15.30;99.20
81192;DHT22;70665;47.652;-2.730;2023-11-18T06:25:52;15.20;99.20
81192;DHT22;70665;47.652;-2.730;2023-11-18T06:28:18;15.20;99.40
81192;DHT22;70665;47.652;-2.730;2023-11-18T06:30:44;15.20;99.20
81192;DHT22;70665;47.652;-2.730;2023-11-18T06:33:09;15.20;99.00
81192;DHT22;70665;47.652;-2.730;2023-11-18T06:35:37;15.20;99.00
81192;DHT22;70665;47.652;-2.730;2023-11-18T06:38:02;15.20;98.90
81192;DHT22;70665;47.652;-2.730;2023-11-18T06:40:28;15.20;99.00
81192;DHT22;70665;47.652;-2.730;2023-11-18T06:42:53;15.30;98.50
81192;DHT22;70665;47.652;-2.730;2023-11-18T06:45:27;15.20;98.50
81192;DHT22;70665;47.652;-2.730;2023-11-18T06:47:52;15.30;98.60
81192;DHT22;70665;47.652;-2.730;2023-11-18T06:50:19;15.30;98.50
81192;DHT22;70665;47.652;-2.730;2023-11-18T06:52:45;15.40;98.40
81192;DHT22;70665;47.652;-2.730;2023-11-18T06:55:10;15.30;98.40
81192;DHT22;70665;47.652;-2.730;2023-11-18T06:57:36;15.40;98.50
81192;DHT22;70665;47.652;-2.730;2023-11-18T07:00:03;15.30;98.20
81192;DHT22;70665;47.652;-2.730;2023-11-18T07:02:34;15.40;98.10
81192;DHT22;70665;47.652;-2.730;2023-11-18T07:04:59;15.40;98.30
81192;DHT22;70665;47.652;-2.730;2023-11-18T07:07:25;15.50;98.00
81192;DHT22;70665;47.652;-2.730;2023-11-18T07:09:51;15.40;98.10
81192;DHT22;70665;47.652;-2.730;2023-11-18T07:12:17;15.50;98.00
81192;DHT22;70665;47.652;-2.730;2023-11-18T07:14:44;15.40;97.90
81192;DHT22;70665;47.652;-2.730;2023-11-18T07:17:13;15.50;98.20
81192;DHT22;70665;47.652;-2.730;2023-11-18T07:19:38;15.50;97.90
81192;DHT22;70665;47.652;-2.730;2023-11-18T07:22:05;15.50;97.90
81192;DHT22;70665;47.652;-2.730;2023-11-18T07:24:32;15.40;98.10
81192;DHT22;70665;47.652;-2.730;2023-11-18T07:26:58;15.50;98.20
81192;DHT22;70665;47.652;-2.730;2023-11-18T07:29:25;15.50;98.00
81192;DHT22;70665;47.652;-2.730;2023-11-18T07:31:52;15.50;97.90
81192;DHT22;70665;47.652;-2.730;2023-11-18T07:34:21;15.50;97.70
81192;DHT22;70665;47.652;-2.730;2023-11-18T07:36:49;15.70;97.70
81192;DHT22;70665;47.652;-2.730;2023-11-18T07:39:15;15.50;97.60
81192;DHT22;70665;47.652;-2.730;2023-11-18T07:41:41;15.60;97.40
81192;DHT22;70665;47.652;-2.730;2023-11-18T07:44:07;15.70;97.20
81192;DHT22;70665;47.652;-2.730;2023-11-18T07:46:36;15.70;97.10
81192;DHT22;70665;47.652;-2.730;2023-11-18T07:49:03;15.80;96.60
81192;DHT22;70665;47.652;-2.730;2023-11-18T07:51:29;15.80;96.60
81192;DHT22;70665;47.652;-2.730;2023-11-18T07:53:55;15.70;96.90
81192;DHT22;70665;47.652;-2.730;2023-11-18T07:56:20;15.70;96.70
81192;DHT22;70665;47.652;-2.730;2023-11-18T07:58:49;15.90;96.60
81192;DHT22;70665;47.652;-2.730;2023-11-18T08:01:16;15.80;96.40
81192;DHT22;70665;47.652;-2.730;2023-11-18T08:03:42;15.70;96.40
81192;DHT22;70665;47.652;-2.730;2023-11-18T08:06:08;15.70;96.50
81192;DHT22;70665;47.652;-2.730;2023-11-18T08:08:34;15.80;96.60
81192;DHT22;70665;47.652;-2.730;2023-11-18T08:11:02;15.80;96.30
81192;DHT22;70665;47.652;-2.730;2023-11-18T08:13:30;15.80;96.50
81192;DHT22;70665;47.652;-2.730;2023-11-18T08:15:57;15.80;96.30
81192;DHT22;70665;47.652;-2.730;2023-11-18T08:18:25;15.90;96.50
81192;DHT22;70665;47.652;-2.730;2023-11-18T08:20:53;15.80;96.20
81192;DHT22;70665;47.652;-2.730;2023-11-18T08:23:18;15.90;96.40
81192;DHT22;70665;47.652;-2.730;2023-11-18T08:25:44;16.00;96.00
81192;DHT22;70665;47.652;-2.730;2023-11-18T08:28:11;16.00;96.10
81192;DHT22;70665;47.652;-2.730;2023-11-18T08:30:39;16.00;96.20
81192;DHT22;70665;47.652;-2.730;2023-11-18T08:33:04;16.00;96.20
81192;DHT22;70665;47.652;-2.730;2023-11-18T08:35:37;16.00;96.20
81192;DHT22;70665;47.652;-2.730;2023-11-18T08:38:02;15.90;96.30
81192;DHT22;70665;47.652;-2.730;2023-11-18T08:40:30;16.00;96.30
81192;DHT22;70665;47.652;-2.730;2023-11-18T08:42:56;16.00;95.90
81192;DHT22;70665;47.652;-2.730;2023-11-18T08:47:48;16.00;96.00
81192;DHT22;70665;47.652;-2.730;2023-11-18T08:50:17;16.00;95.80
81192;DHT22;70665;47.652;-2.730;2023-11-18T08:52:44;16.00;95.80
81192;DHT22;70665;47.652;-2.730;2023-11-18T08:55:16;16.00;95.80
81192;DHT22;70665;47.652;-2.730;2023-11-18T08:57:49;16.00;95.70
81192;DHT22;70665;47.652;-2.730;2023-11-18T09:00:26;16.10;96.10
81192;DHT22;70665;47.652;-2.730;2023-11-18T09:03:31;16.10;95.80
81192;DHT22;70665;47.652;-2.730;2023-11-18T09:06:04;16.10;95.70
81192;DHT22;70665;47.652;-2.730;2023-11-18T09:08:31;16.20;95.60
81192;DHT22;70665;47.652;-2.730;2023-11-18T09:11:09;16.30;95.40
81192;DHT22;70665;47.652;-2.730;2023-11-18T09:13:43;16.20;95.50
81192;DHT22;70665;47.652;-2.730;2023-11-18T09:16:11;16.30;95.20
81192;DHT22;70665;47.652;-2.730;2023-11-18T09:18:40;16.30;95.40
81192;DHT22;70665;47.652;-2.730;2023-11-18T09:21:11;16.30;95.20
81192;DHT22;70665;47.652;-2.730;2023-11-18T09:23:41;16.30;95.30
81192;DHT22;70665;47.652;-2.730;2023-11-18T09:26:07;16.30;95.20
81192;DHT22;70665;47.652;-2.730;2023-11-18T09:28:34;16.30;95.40
81192;DHT22;70665;47.652;-2.730;2023-11-18T09:31:01;16.40;95.30
81192;DHT22;70665;47.652;-2.730;2023-11-18T09:33:30;16.40;95.20
81192;DHT22;70665;47.652;-2.730;2023-11-18T09:36:04;16.30;95.30
81192;DHT22;70665;47.652;-2.730;2023-11-18T09:38:40;16.40;95.50
81192;DHT22;70665;47.652;-2.730;2023-11-18T09:41:08;16.30;95.40
81192;DHT22;70665;47.652;-2.730;2023-11-18T09:43:40;16.30;95.50
81192;DHT22;70665;47.652;-2.730;2023-11-18T09:46:16;16.30;95.60
81192;DHT22;70665;47.652;-2.730;2023-11-18T09:48:45;16.40;95.10
81192;DHT22;70665;47.652;-2.730;2023-11-18T09:51:38;16.50;95.10
81192;DHT22;70665;47.652;-2.730;2023-11-18T09:54:28;16.50;95.00
81192;DHT22;70665;47.652;-2.730;2023-11-18T09:57:08;16.50;94.80
81192;DHT22;70665;47.652;-2.730;2023-11-18T10:00:06;16.40;95.20
81192;DHT22;70665;47.652;-2.730;2023-11-18T10:02:50;16.40;95.10
81192;DHT22;70665;47.652;-2.730;2023-11-18T10:05:17;16.50;95.00
81192;DHT22;70665;47.652;-2.730;2023-11-18T10:07:46;16.40;95.30
81192;DHT22;70665;47.652;-2.730;2023-11-18T10:10:16;16.40;95.40
81192;DHT22;70665;47.652;-2.730;2023-11-18T10:12:45;16.40;95.20
81192;DHT22;70665;47.652;-2.730;2023-11-18T10:15:14;16.40;95.40
81192;DHT22;70665;47.652;-2.730;2023-11-18T10:17:44;16.40;95.30
81192;DHT22;70665;47.652;-2.730;2023-11-18T10:20:45;16.50;95.30
81192;DHT22;70665;47.652;-2.730;2023-11-18T10:23:12;16.50;95.20
81192;DHT22;70665;47.652;-2.730;2023-11-18T10:25:49;16.50;95.30
81192;DHT22;70665;47.652;-2.730;2023-11-18T10:28:25;16.50;95.00
81192;DHT22;70665;47.652;-2.730;2023-11-18T10:31:03;16.60;94.90
81192;DHT22;70665;47.652;-2.730;2023-11-18T10:33:36;16.50;94.70
81192;DHT22;70665;47.652;-2.730;2023-11-18T10:36:03;16.70;94.80
81192;DHT22;70665;47.652;-2.730;2023-11-18T10:38:37;16.60;94.50
81192;DHT22;70665;47.652;-2.730;2023-11-18T10:41:06;16.60;94.80
81192;DHT22;70665;47.652;-2.730;2023-11-18T10:43:32;16.70;94.80
81192;DHT22;70665;47.652;-2.730;2023-11-18T10:46:15;16.70;94.40
81192;DHT22;70665;47.652;-2.730;2023-11-18T10:48:47;16.60;94.50
81192;DHT22;70665;47.652;-2.730;2023-11-18T10:51:15;16.70;94.20
81192;DHT22;70665;47.652;-2.730;2023-11-18T10:53:46;16.70;94.00
81192;DHT22;70665;47.652;-2.730;2023-11-18T10:56:27;16.70;94.10
81192;DHT22;70665;47.652;-2.730;2023-11-18T10:59:04;16.70;93.80
81192;DHT22;70665;47.652;-2.730;2023-11-18T11:01:34;16.80;94.00
81192;DHT22;70665;47.652;-2.730;2023-11-18T11:04:04;16.80;93.90
81192;DHT22;70665;47.652;-2.730;2023-11-18T11:06:32;16.80;93.90
81192;DHT22;70665;47.652;-2.730;2023-11-18T11:08:58;16.70;94.00
81192;DHT22;70665;47.652;-2.730;2023-11-18T11:11:32;16.80;93.40
81192;DHT22;70665;47.652;-2.730;2023-11-18T11:14:03;16.80;94.00
81192;DHT22;70665;47.652;-2.730;2023-11-18T11:16:41;16.70;93.80
81192;DHT22;70665;47.652;-2.730;2023-11-18T11:19:24;16.80;94.00
81192;DHT22;70665;47.652;-2.730;2023-11-18T11:22:07;16.70;93.80
81192;DHT22;70665;47.652;-2.730;2023-11-18T11:25:03;16.80;94.20
81192;DHT22;70665;47.652;-2.730;2023-11-18T11:27:38;16.80;93.80
81192;DHT22;70665;47.652;-2.730;2023-11-18T11:30:22;16.70;93.80
81192;DHT22;70665;47.652;-2.730;2023-11-18T11:32:52;16.80;93.60
81192;DHT22;70665;47.652;-2.730;2023-11-18T11:35:23;16.80;93.50
81192;DHT22;70665;47.652;-2.730;2023-11-18T11:37:49;16.70;93.70
81192;DHT22;70665;47.652;-2.730;2023-11-18T11:40:16;16.70;93.70
81192;DHT22;70665;47.652;-2.730;2023-11-18T11:42:48;16.80;93.90
81192;DHT22;70665;47.652;-2.730;2023-11-18T11:45:21;16.80;94.30
81192;DHT22;70665;47.652;-2.730;2023-11-18T11:47:50;16.70;94.50
81192;DHT22;70665;47.652;-2.730;2023-11-18T11:50:22;16.70;94.50
81192;DHT22;70665;47.652;-2.730;2023-11-18T11:53:04;16.70;94.80
81192;DHT22;70665;47.652;-2.730;2023-11-18T11:55:59;16.70;95.20
81192;DHT22;70665;47.652;-2.730;2023-11-18T11:58:33;16.70;95.40
81192;DHT22;70665;47.652;-2.730;2023-11-18T12:01:00;16.60;95.50
81192;DHT22;70665;47.652;-2.730;2023-11-18T12:03:39;16.60;96.10
81192;DHT22;70665;47.652;-2.730;2023-11-18T12:06:08;16.60;96.10
81192;DHT22;70665;47.652;-2.730;2023-11-18T12:08:35;16.60;96.20
81192;DHT22;70665;47.652;-2.730;2023-11-18T12:11:02;16.60;96.10
81192;DHT22;70665;47.652;-2.730;2023-11-18T12:13:28;16.60;96.10
81192;DHT22;70665;47.652;-2.730;2023-11-18T12:15:57;16.50;96.30
81192;DHT22;70665;47.652;-2.730;2023-11-18T12:18:23;16.60;96.20
81192;DHT22;70665;47.652;-2.730;2023-11-18T12:20:52;16.60;96.10
81192;DHT22;70665;47.652;-2.730;2023-11-18T12:23:21;16.60;96.00
81192;DHT22;70665;47.652;-2.730;2023-11-18T12:25:51;16.60;95.70
81192;DHT22;70665;47.652;-2.730;2023-11-18T12:28:25;16.60;95.80
81192;DHT22;70665;47.652;-2.730;2023-11-18T12:30:53;16.70;95.70
81192;DHT22;70665;47.652;-2.730;2023-11-18T12:33:22;16.70;95.60
81192;DHT22;70665;47.652;-2.730;2023-11-18T12:39:01;16.70;95.60
81192;DHT22;70665;47.652;-2.730;2023-11-18T12:41:36;16.80;95.50
81192;DHT22;70665;47.652;-2.730;2023-11-18T12:49:37;16.70;95.40
81192;DHT22;70665;47.652;-2.730;2023-11-18T12:52:07;16.80;95.40
81192;DHT22;70665;47.652;-2.730;2023-11-18T12:54:35;16.80;95.20
81192;DHT22;70665;47.652;-2.730;2023-11-18T12:57:09;16.70;95.20
81192;DHT22;70665;47.652;-2.730;2023-11-18T12:59:35;16.80;95.20
81192;DHT22;70665;47.652;-2.730;2023-11-18T13:02:09;16.80;95.10
81192;DHT22;70665;47.652;-2.730;2023-11-18T13:04:39;16.70;95.50
81192;DHT22;70665;47.652;-2.730;2023-11-18T13:07:06;16.80;95.20
81192;DHT22;70665;47.652;-2.730;2023-11-18T13:09:34;16.70;95.30
81192;DHT22;70665;47.652;-2.730;2023-11-18T13:12:02;16.70;95.50
81192;DHT22;70665;47.652;-2.730;2023-11-18T13:14:32;16.80;95.50
81192;DHT22;70665;47.652;-2.730;2023-11-18T13:17:02;16.70;95.60
81192;DHT22;70665;47.652;-2.730;2023-11-18T13:19:31;16.70;95.40
81192;DHT22;70665;47.652;-2.730;2023-11-18T13:22:05;16.70;95.60
81192;DHT22;70665;47.652;-2.730;2023-11-18T13:24:34;16.70;95.50
81192;DHT22;70665;47.652;-2.730;2023-11-18T13:27:00;16.70;95.60
81192;DHT22;70665;47.652;-2.730;2023-11-18T13:29:30;16.90;95.60
81192;DHT22;70665;47.652;-2.730;2023-11-18T13:31:57;16.80;95.50
81192;DHT22;70665;47.652;-2.730;2023-11-18T13:34:26;16.80;95.60
81192;DHT22;70665;47.652;-2.730;2023-11-18T13:36:53;16.80;95.70
81192;DHT22;70665;47.652;-2.730;2023-11-18T13:39:20;16.80;95.90
81192;DHT22;70665;47.652;-2.730;2023-11-18T13:41:48;16.80;96.40
81192;DHT22;70665;47.652;-2.730;2023-11-18T13:44:32;16.70;96.40
81192;DHT22;70665;47.652;-2.730;2023-11-18T13:46:59;16.70;96.60
81192;DHT22;70665;47.652;-2.730;2023-11-18T13:49:28;16.70;96.90
81192;DHT22;70665;47.652;-2.730;2023-11-18T13:51:58;16.60;96.80
81192;DHT22;70665;47.652;-2.730;2023-11-18T13:54:24;16.70;96.90
81192;DHT22;70665;47.652;-2.730;2023-11-18T13:56:51;16.50;96.90
81192;DHT22;70665;47.652;-2.730;2023-11-18T13:59:18;16.70;97.10
81192;DHT22;70665;47.652;-2.730;2023-11-18T14:01:44;16.70;97.20
81192;DHT22;70665;47.652;-2.730;2023-11-18T14:04:11;16.60;97.40
81192;DHT22;70665;47.652;-2.730;2023-11-18T14:06:36;16.60;97.40
81192;DHT22;70665;47.652;-2.730;2023-11-18T14:09:02;16.50;97.70
81192;DHT22;70665;47.652;-2.730;2023-11-18T14:11:30;16.50;97.70
81192;DHT22;70665;47.652;-2.730;2023-11-18T14:13:56;16.60;97.80
81192;DHT22;70665;47.652;-2.730;2023-11-18T14:16:23;16.50;97.90
81192;DHT22;70665;47.652;-2.730;2023-11-18T14:18:51;16.60;97.90
81192;DHT22;70665;47.652;-2.730;2023-11-18T14:21:17;16.60;98.00
81192;DHT22;70665;47.652;-2.730;2023-11-18T14:23:43;16.50;97.90
81192;DHT22;70665;47.652;-2.730;2023-11-18T14:26:10;16.60;97.90
81192;DHT22;70665;47.652;-2.730;2023-11-18T14:28:35;16.60;98.00
81192;DHT22;70665;47.652;-2.730;2023-11-18T14:31:02;16.60;98.00
81192;DHT22;70665;47.652;-2.730;2023-11-18T14:33:33;16.50;98.00
81192;DHT22;70665;47.652;-2.730;2023-11-18T14:35:59;16.50;98.10
81192;DHT22;70665;47.652;-2.730;2023-11-18T14:38:26;16.50;98.00
81192;DHT22;70665;47.652;-2.730;2023-11-18T14:40:52;16.40;98.30
81192;DHT22;70665;47.652;-2.730;2023-11-18T14:43:19;16.50;98.30
81192;DHT22;70665;47.652;-2.730;2023-11-18T14:45:44;16.50;98.50
81192;DHT22;70665;47.652;-2.730;2023-11-18T14:48:10;16.40;98.40
81192;DHT22;70665;47.652;-2.730;2023-11-18T14:50:36;16.40;98.50
81192;DHT22;70665;47.652;-2.730;2023-11-18T14:53:01;16.40;98.50
81192;DHT22;70665;47.652;-2.730;2023-11-18T14:55:31;16.50;98.50
81192;DHT22;70665;47.652;-2.730;2023-11-18T14:57:58;16.50;98.50
81192;DHT22;70665;47.652;-2.730;2023-11-18T15:00:24;16.50;98.70
81192;DHT22;70665;47.652;-2.730;2023-11-18T15:02:55;16.40;98.60
81192;DHT22;70665;47.652;-2.730;2023-11-18T15:05:21;16.50;98.40
81192;DHT22;70665;47.652;-2.730;2023-11-18T15:07:49;16.40;98.40
81192;DHT22;70665;47.652;-2.730;2023-11-18T15:10:16;16.50;98.80
81192;DHT22;70665;47.652;-2.730;2023-11-18T15:12:46;16.40;98.60
81192;DHT22;70665;47.652;-2.730;2023-11-18T15:15:12;16.50;98.50
81192;DHT22;70665;47.652;-2.730;2023-11-18T15:17:45;16.50;98.60
81192;DHT22;70665;47.652;-2.730;2023-11-18T15:20:12;16.40;98.40
81192;DHT22;70665;47.652;-2.730;2023-11-18T15:22:41;16.40;98.50
81192;DHT22;70665;47.652;-2.730;2023-11-18T15:25:08;16.50;98.50
81192;DHT22;70665;47.652;-2.730;2023-11-18T15:27:41;16.40;98.60
81192;DHT22;70665;47.652;-2.730;2023-11-18T15:30:10;16.40;98.70
81192;DHT22;70665;47.652;-2.730;2023-11-18T15:32:37;16.50;98.60
81192;DHT22;70665;47.652;-2.730;2023-11-18T15:35:04;16.40;98.50